Time;durP1;ratioP1;P1;durP2;ratioP2;P2;SDS_P1;SDS_P2;PMS_P1;PMS_P2;Temp;Humidity;BMP_temperature;BMP_pressure;BME280_temperature;BME280_humidity;BME280_pressure;Samples;Min_cycle;Max_cycle;Signal;HPM_P1;HPM_P2
2021/08/28 00:02:25;;;;;;;16.27;3.60;;;14.40;99.90;;;;;;5066504;28;20283;-79
2021/08/28 00:04:52;;;;;;;14.40;4.90;;;14.30;99.90;;;;;;5074488;28;20195;-78
2021/08/28 00:07:19;;;;;;;19.83;4.03;;;14.30;99.90;;;;;;5074620;28;20268;-77
2021/08/28 00:09:46;;;;;;;21.50;4.60;;;14.30;99.90;;;;;;5074400;28;20305;-78
2021/08/28 00:12:13;;;;;;;16.00;4.63;;;14.30;99.90;;;;;;5074203;28;20198;-77
2021/08/28 00:14:40;;;;;;;21.03;4.97;;;14.30;99.90;;;;;;5074372;28;20306;-78
2021/08/28 00:17:07;;;;;;;18.50;4.70;;;14.20;99.90;;;;;;5074417;28;20199;-76
2021/08/28 00:19:35;;;;;;;17.47;4.57;;;14.20;99.90;;;;;;5072983;28;20254;-76
2021/08/28 00:22:02;;;;;;;20.70;4.73;;;14.30;99.90;;;;;;5066656;28;20205;-76
2021/08/28 00:24:29;;;;;;;17.70;4.93;;;14.30;99.90;;;;;;5072650;28;20661;-78
2021/08/28 00:26:56;;;;;;;17.50;5.63;;;14.30;99.90;;;;;;5073585;28;20231;-78
2021/08/28 00:29:23;;;;;;;16.37;5.10;;;14.20;99.90;;;;;;5074358;28;20288;-76
2021/08/28 00:31:50;;;;;;;16.37;5.90;;;14.20;99.90;;;;;;5071769;28;20226;-78
2021/08/28 00:34:16;;;;;;;19.53;5.93;;;14.30;99.90;;;;;;5069882;28;20228;-78
2021/08/28 00:36:45;;;;;;;12.70;5.17;;;14.30;99.90;;;;;;5090433;28;20229;-79
2021/08/28 00:39:11;;;;;;;20.43;6.33;;;14.30;99.90;;;;;;5077610;28;20223;-79
2021/08/28 00:41:38;;;;;;;22.30;6.60;;;14.30;99.90;;;;;;5081742;28;20241;-76
2021/08/28 00:44:06;;;;;;;21.13;6.30;;;14.30;99.90;;;;;;5079269;28;20290;-79
2021/08/28 00:46:33;;;;;;;20.30;6.70;;;14.30;99.90;;;;;;5098188;28;20237;-79
2021/08/28 00:49:00;;;;;;;19.83;6.20;;;14.30;99.90;;;;;;5108759;28;20203;-77
2021/08/28 00:51:27;;;;;;;24.67;6.47;;;14.30;99.90;;;;;;5081934;28;20198;-77
2021/08/28 00:53:55;;;;;;;15.07;6.10;;;14.40;99.90;;;;;;5111268;28;20207;-78
2021/08/28 00:56:22;;;;;;;17.17;6.90;;;14.40;99.90;;;;;;5110225;28;20202;-78
2021/08/28 00:58:49;;;;;;;21.53;7.13;;;14.30;99.90;;;;;;5102788;28;20680;-77
2021/08/28 01:01:20;;;;;;;22.20;6.97;;;14.40;99.90;;;;;;5107157;28;20229;-78
2021/08/28 01:03:56;;;;;;;22.50;7.40;;;14.50;99.90;;;;;;5110693;28;20199;-77
2021/08/28 01:06:32;;;;;;;26.83;7.20;;;14.70;99.90;;;;;;5115483;28;20199;-78
2021/08/28 01:09:05;;;;;;;15.33;7.37;;;14.80;99.90;;;;;;5094660;28;20279;-77
2021/08/28 01:11:40;;;;;;;20.17;8.53;;;14.80;99.90;;;;;;5111054;28;20194;-77
2021/08/28 01:14:10;;;;;;;21.87;8.23;;;14.90;99.90;;;;;;5113247;28;20199;-79
2021/08/28 01:16:39;;;;;;;24.70;8.10;;;14.90;99.90;;;;;;5101659;28;20256;-79
2021/08/28 01:19:05;;;;;;;22.17;8.00;;;14.90;99.90;;;;;;5092867;28;20317;-78
2021/08/28 01:21:37;;;;;;;22.77;8.40;;;15.00;99.90;;;;;;5092872;28;20233;-78
2021/08/28 01:24:08;;;;;;;21.30;8.43;;;15.10;99.90;;;;;;5093488;28;20198;-80
2021/08/28 01:26:41;;;;;;;21.57;8.50;;;15.10;99.90;;;;;;5079608;28;20199;-79
2021/08/28 01:29:19;;;;;;;21.33;7.90;;;15.10;99.90;;;;;;5094158;28;20229;-79
2021/08/28 01:31:48;;;;;;;17.67;8.10;;;15.30;99.90;;;;;;5080614;28;20238;-80
2021/08/28 01:34:16;;;;;;;24.40;8.53;;;15.40;99.90;;;;;;5093655;28;20202;-78
2021/08/28 01:36:44;;;;;;;23.53;8.77;;;15.40;99.90;;;;;;5093472;28;20293;-77
2021/08/28 01:39:12;;;;;;;25.47;8.97;;;15.50;99.90;;;;;;5093220;28;20302;-78
2021/08/28 01:41:41;;;;;;;26.27;8.67;;;15.40;99.90;;;;;;5087534;28;20202;-77
2021/08/28 01:44:10;;;;;;;20.63;8.37;;;15.40;99.90;;;;;;5086624;28;20721;-78
2021/08/28 01:46:39;;;;;;;23.47;8.87;;;15.20;99.90;;;;;;5083437;28;20205;-77
2021/08/28 01:49:07;;;;;;;21.87;8.70;;;15.10;99.90;;;;;;5092515;28;20206;-79
2021/08/28 01:51:35;;;;;;;19.27;7.73;;;15.00;99.90;;;;;;5093151;28;20289;-78
2021/08/28 01:54:02;;;;;;;29.87;8.97;;;15.00;99.90;;;;;;5092992;28;20237;-76
2021/08/28 01:56:29;;;;;;;21.77;8.60;;;14.90;99.90;;;;;;5092956;28;20244;-79
2021/08/28 01:58:57;;;;;;;25.40;8.73;;;14.80;99.90;;;;;;5093006;28;20226;-79
2021/08/28 02:01:24;;;;;;;32.17;9.27;;;14.90;99.90;;;;;;5087435;28;20542;-79
2021/08/28 02:03:52;;;;;;;23.50;8.30;;;14.80;99.90;;;;;;5085338;28;20203;-78
2021/08/28 02:06:29;;;;;;;26.63;8.63;;;14.90;99.90;;;;;;5089997;28;20290;-80
2021/08/28 02:09:01;;;;;;;23.57;8.13;;;15.00;99.90;;;;;;5072653;28;20278;-78
2021/08/28 02:11:33;;;;;;;25.33;9.33;;;15.00;99.90;;;;;;5086301;28;20199;-78
2021/08/28 02:14:05;;;;;;;22.87;8.63;;;15.00;99.90;;;;;;5080631;28;20203;-79
2021/08/28 02:16:35;;;;;;;24.87;8.83;;;15.00;99.90;;;;;;5091565;28;20245;-78
2021/08/28 02:19:11;;;;;;;23.00;9.20;;;15.10;99.90;;;;;;5092792;28;20604;-78
2021/08/28 02:21:40;;;;;;;29.93;9.50;;;15.20;99.90;;;;;;5085894;28;20664;-76
2021/08/28 02:24:11;;;;;;;27.93;9.30;;;15.20;99.90;;;;;;5084026;28;20289;-78
2021/08/28 02:26:41;;;;;;;25.67;9.87;;;15.10;99.90;;;;;;5092724;28;20226;-79
2021/08/28 02:29:14;;;;;;;24.90;9.47;;;15.10;99.90;;;;;;5083572;28;20203;-78
2021/08/28 02:31:45;;;;;;;24.63;9.27;;;15.10;99.90;;;;;;5091777;28;20203;-77
2021/08/28 02:34:14;;;;;;;27.40;9.67;;;15.00;99.90;;;;;;5096976;28;20198;-81
2021/08/28 02:36:45;;;;;;;20.67;9.27;;;15.00;99.90;;;;;;5096439;28;20297;-79
2021/08/28 02:39:13;;;;;;;29.40;9.53;;;15.10;99.90;;;;;;5097020;28;20230;-79
2021/08/28 02:41:42;;;;;;;25.13;9.47;;;15.00;99.90;;;;;;5096349;28;20256;-77
2021/08/28 02:44:11;;;;;;;26.13;9.37;;;15.00;99.90;;;;;;5096646;28;20293;-80
2021/08/28 02:46:40;;;;;;;25.77;8.27;;;15.10;99.90;;;;;;5096923;28;20215;-78
2021/08/28 02:49:07;;;;;;;22.97;8.53;;;15.20;99.90;;;;;;5081497;28;20203;-79
2021/08/28 02:51:37;;;;;;;23.00;8.53;;;15.20;99.90;;;;;;5084005;28;20275;-79
2021/08/28 02:54:05;;;;;;;28.10;8.37;;;15.20;99.90;;;;;;5105596;28;20266;-77
2021/08/28 02:56:33;;;;;;;23.63;8.67;;;15.30;99.90;;;;;;5104962;28;20203;-78
2021/08/28 02:59:00;;;;;;;26.63;9.10;;;15.40;99.90;;;;;;5108022;28;20226;-78
2021/08/28 03:01:29;;;;;;;26.00;8.60;;;15.30;99.90;;;;;;5100627;28;20675;-78
2021/08/28 03:03:58;;;;;;;27.17;9.07;;;15.20;99.90;;;;;;5114977;28;20202;-77
2021/08/28 03:06:27;;;;;;;26.73;8.77;;;15.10;99.90;;;;;;5116162;28;20230;-77
2021/08/28 03:08:56;;;;;;;29.23;9.67;;;15.00;99.90;;;;;;5116146;28;20199;-78
2021/08/28 03:11:23;;;;;;;29.77;9.00;;;15.00;99.90;;;;;;5116811;28;20203;-77
2021/08/28 03:13:50;;;;;;;27.87;9.63;;;15.00;99.90;;;;;;5115673;28;20652;-76
2021/08/28 03:16:19;;;;;;;27.13;9.40;;;15.00;99.90;;;;;;5114154;28;20206;-80
2021/08/28 03:18:49;;;;;;;26.30;10.40;;;15.00;99.90;;;;;;5096224;28;20225;-78
2021/08/28 03:21:17;;;;;;;27.73;10.47;;;14.90;99.90;;;;;;5095927;28;20618;-77
2021/08/28 03:23:45;;;;;;;27.07;10.77;;;14.90;99.90;;;;;;5095934;28;20213;-79
2021/08/28 03:26:16;;;;;;;28.00;11.03;;;14.80;99.90;;;;;;5090398;28;20799;-77
2021/08/28 03:28:43;;;;;;;25.50;10.63;;;14.80;99.90;;;;;;5096089;28;20247;-79
2021/08/28 03:31:12;;;;;;;33.37;11.10;;;14.90;99.90;;;;;;5095335;28;20822;-78
2021/08/28 03:33:40;;;;;;;28.07;10.90;;;14.80;99.90;;;;;;5095512;28;20233;-78
2021/08/28 03:36:08;;;;;;;36.87;12.10;;;14.90;99.90;;;;;;5095643;28;20294;-80
2021/08/28 03:38:35;;;;;;;32.93;12.40;;;14.80;99.90;;;;;;5095105;28;20233;-78
2021/08/28 03:41:02;;;;;;;33.83;12.27;;;14.90;99.90;;;;;;5090576;28;20326;-79
2021/08/28 03:43:32;;;;;;;37.50;13.33;;;14.80;99.90;;;;;;5095395;28;20297;-78
2021/08/28 03:45:59;;;;;;;35.30;13.20;;;14.80;99.90;;;;;;5095294;28;20240;-77
2021/08/28 03:48:26;;;;;;;44.63;13.47;;;14.70;99.90;;;;;;5095096;28;20285;-78
2021/08/28 03:50:54;;;;;;;44.10;13.97;;;14.70;99.90;;;;;;5094794;28;20237;-78
2021/08/28 03:53:21;;;;;;;32.17;13.60;;;14.60;99.90;;;;;;5097821;28;20205;-79
2021/08/28 03:55:52;;;;;;;34.40;13.80;;;14.60;99.90;;;;;;5094271;28;20237;-77
2021/08/28 03:58:18;;;;;;;38.10;15.27;;;14.60;99.90;;;;;;5096068;28;20580;-78
2021/08/28 04:00:47;;;;;;;39.47;14.43;;;14.60;99.90;;;;;;5080133;28;20241;-77
2021/08/28 04:03:13;;;;;;;45.63;14.70;;;14.60;99.90;;;;;;5094750;28;20222;-79
2021/08/28 04:05:41;;;;;;;37.10;15.27;;;14.60;99.90;;;;;;5099165;28;20290;-77
2021/08/28 04:08:08;;;;;;;44.17;14.07;;;14.60;99.90;;;;;;5097423;28;20207;-79
2021/08/28 04:10:35;;;;;;;41.30;15.60;;;14.60;99.90;;;;;;5095610;28;20255;-78
2021/08/28 04:13:02;;;;;;;42.97;16.77;;;14.60;99.90;;;;;;5091933;28;20195;-79
2021/08/28 04:15:29;;;;;;;36.97;16.27;;;14.50;99.90;;;;;;5086652;28;20226;-79
2021/08/28 04:17:57;;;;;;;54.03;17.33;;;14.60;99.90;;;;;;5094691;28;20280;-79
2021/08/28 04:20:24;;;;;;;37.67;17.47;;;14.50;99.90;;;;;;5094705;28;20251;-76
2021/08/28 04:22:51;;;;;;;39.30;16.53;;;14.50;99.90;;;;;;5094578;28;20242;-76
2021/08/28 04:25:18;;;;;;;43.40;18.33;;;14.60;99.90;;;;;;5094602;28;20237;-78
2021/08/28 04:27:45;;;;;;;57.03;18.37;;;14.50;99.90;;;;;;5093122;28;20201;-76
2021/08/28 04:30:13;;;;;;;49.00;18.30;;;14.50;99.90;;;;;;5079394;28;20285;-77
2021/08/28 04:32:40;;;;;;;50.77;17.77;;;14.40;99.90;;;;;;5094200;28;20288;-76
2021/08/28 04:35:09;;;;;;;43.10;18.17;;;14.50;99.90;;;;;;5094187;28;20293;-78
2021/08/28 04:37:36;;;;;;;42.53;18.27;;;14.70;99.90;;;;;;5094253;28;20230;-77
2021/08/28 04:40:03;;;;;;;49.57;19.73;;;14.70;99.90;;;;;;5094165;28;20219;-79
2021/08/28 04:42:30;;;;;;;53.67;19.37;;;14.80;99.90;;;;;;5093850;28;20222;-79
2021/08/28 04:44:57;;;;;;;44.33;18.50;;;14.90;99.90;;;;;;5075797;28;20223;-77
2021/08/28 04:47:24;;;;;;;43.17;18.17;;;14.90;99.90;;;;;;5091166;28;20278;-78
2021/08/28 04:49:51;;;;;;;47.77;18.97;;;15.10;99.90;;;;;;5094051;28;20706;-77
2021/08/28 04:52:19;;;;;;;50.63;19.80;;;15.10;99.90;;;;;;5094089;28;20198;-79
2021/08/28 04:54:46;;;;;;;44.13;18.00;;;15.10;99.90;;;;;;5094395;28;20211;-78
2021/08/28 04:57:13;;;;;;;49.20;18.23;;;15.10;99.90;;;;;;5094455;28;20218;-76
2021/08/28 04:59:39;;;;;;;44.80;18.87;;;15.10;99.90;;;;;;5065862;28;20576;-79
2021/08/28 05:02:06;;;;;;;36.23;18.13;;;15.10;99.90;;;;;;5094153;28;20194;-76
2021/08/28 05:04:33;;;;;;;37.87;18.17;;;15.10;99.90;;;;;;5082528;28;20286;-78
2021/08/28 05:07:00;;;;;;;39.63;17.47;;;15.10;99.90;;;;;;5075524;28;20237;-78
2021/08/28 05:09:29;;;;;;;45.00;16.67;;;15.10;99.90;;;;;;5078040;28;20352;-77
2021/08/28 05:11:56;;;;;;;41.40;17.50;;;15.10;99.90;;;;;;5075741;28;20199;-77
2021/08/28 05:14:22;;;;;;;32.97;17.07;;;15.10;99.90;;;;;;5076479;28;20214;-77
2021/08/28 05:16:49;;;;;;;40.63;16.80;;;15.10;99.90;;;;;;5075983;28;20278;-77
2021/08/28 05:19:16;;;;;;;38.93;16.43;;;15.10;99.90;;;;;;5075591;28;20238;-77
2021/08/28 05:21:44;;;;;;;39.87;15.10;;;15.20;99.90;;;;;;5077648;28;20209;-78
2021/08/28 05:24:11;;;;;;;37.63;15.90;;;15.10;99.90;;;;;;5075256;28;20210;-77
2021/08/28 05:26:39;;;;;;;32.67;14.67;;;15.20;99.90;;;;;;5075880;28;20202;-78
2021/08/28 05:29:06;;;;;;;37.53;14.47;;;15.10;99.90;;;;;;5075572;28;20562;-78
2021/08/28 05:31:33;;;;;;;35.73;14.37;;;15.20;99.90;;;;;;5075890;28;20234;-79
2021/08/28 05:34:00;;;;;;;32.33;14.90;;;15.20;99.90;;;;;;5072675;28;20286;-78
2021/08/28 05:36:27;;;;;;;26.50;13.93;;;15.30;99.90;;;;;;5070149;28;20710;-78
2021/08/28 05:38:55;;;;;;;37.30;13.23;;;15.30;99.90;;;;;;5066903;28;20252;-79
2021/08/28 05:41:22;;;;;;;31.50;13.53;;;15.40;99.90;;;;;;5072750;28;20634;-80
2021/08/28 05:43:51;;;;;;;39.27;13.60;;;15.30;99.90;;;;;;5073967;28;20211;-76
2021/08/28 05:46:18;;;;;;;39.13;12.93;;;15.40;99.90;;;;;;5073928;28;20290;-75
2021/08/28 05:48:44;;;;;;;27.80;12.43;;;15.50;99.90;;;;;;5072887;28;20290;-75
2021/08/28 05:51:11;;;;;;;36.53;13.50;;;15.50;99.90;;;;;;5074393;28;20302;-79
2021/08/28 05:53:38;;;;;;;28.00;12.60;;;15.60;99.90;;;;;;5072874;28;20243;-77
2021/08/28 05:56:05;;;;;;;25.27;12.17;;;15.60;99.90;;;;;;5074964;28;20250;-79
2021/08/28 05:58:33;;;;;;;31.73;12.57;;;15.70;99.90;;;;;;5072666;28;20245;-76
2021/08/28 06:01:02;;;;;;;32.53;11.63;;;15.70;99.90;;;;;;5074336;28;20264;-79
2021/08/28 06:03:29;;;;;;;30.80;11.77;;;15.70;99.90;;;;;;5071840;28;20286;-77
2021/08/28 06:05:56;;;;;;;32.43;12.17;;;15.80;99.90;;;;;;5076663;28;20254;-79
2021/08/28 06:08:23;;;;;;;22.07;9.93;;;15.90;99.90;;;;;;5073002;28;20233;-79
2021/08/28 06:10:50;;;;;;;21.13;10.10;;;16.00;99.90;;;;;;5074677;28;20545;-83
2021/08/28 06:13:16;;;;;;;25.23;10.03;;;16.20;99.90;;;;;;5072652;28;20230;-79
2021/08/28 06:15:43;;;;;;;25.00;9.77;;;16.20;99.90;;;;;;5075239;28;20200;-79
2021/08/28 06:18:12;;;;;;;23.23;8.60;;;16.30;99.90;;;;;;5075296;28;20206;-78
2021/08/28 06:20:39;;;;;;;22.73;8.47;;;16.40;99.90;;;;;;5074868;28;20227;-79
2021/08/28 06:23:06;;;;;;;28.07;9.27;;;16.30;99.90;;;;;;5075383;28;20199;-83
2021/08/28 06:25:32;;;;;;;19.47;8.20;;;16.50;99.90;;;;;;5071478;28;20215;-78
2021/08/28 06:27:59;;;;;;;19.90;8.50;;;16.60;99.90;;;;;;5076372;28;20708;-79
2021/08/28 06:30:26;;;;;;;17.33;8.00;;;16.70;99.90;;;;;;5074895;28;20840;-77
2021/08/28 06:32:53;;;;;;;15.90;7.10;;;16.70;99.90;;;;;;5074043;28;20253;-78
2021/08/28 06:35:21;;;;;;;15.73;7.30;;;16.70;99.90;;;;;;5075611;28;20211;-78
2021/08/28 06:37:48;;;;;;;15.87;7.80;;;16.70;99.90;;;;;;5071926;28;20228;-79
2021/08/28 06:40:15;;;;;;;15.27;7.23;;;16.80;99.90;;;;;;5073708;28;20307;-78
2021/08/28 06:42:42;;;;;;;19.97;6.90;;;17.00;99.90;;;;;;5073330;28;20298;-78
2021/08/28 06:45:10;;;;;;;15.77;7.00;;;17.10;99.90;;;;;;5077671;28;20231;-79
2021/08/28 06:47:37;;;;;;;12.97;6.57;;;17.30;99.90;;;;;;5082877;28;20669;-79
2021/08/28 06:50:05;;;;;;;16.67;6.73;;;17.30;99.90;;;;;;5072357;28;20649;-78
2021/08/28 06:52:33;;;;;;;19.20;6.97;;;17.40;99.90;;;;;;5076927;28;20230;-76
2021/08/28 06:55:00;;;;;;;17.70;6.90;;;17.30;99.90;;;;;;5076379;28;20295;-78
2021/08/28 06:57:27;;;;;;;17.47;7.00;;;17.20;99.90;;;;;;5077547;28;20219;-78
2021/08/28 06:59:54;;;;;;;17.80;6.97;;;17.20;99.90;;;;;;5071779;28;20231;-78
2021/08/28 07:02:22;;;;;;;16.50;7.27;;;17.20;99.90;;;;;;5078126;28;20235;-79
2021/08/28 07:04:49;;;;;;;12.20;6.63;;;17.20;99.90;;;;;;5082386;28;20264;-81
2021/08/28 07:07:16;;;;;;;18.53;6.77;;;17.50;99.90;;;;;;5077234;28;20287;-81
2021/08/28 07:09:44;;;;;;;20.10;6.80;;;17.50;99.90;;;;;;5082434;28;20207;-79
2021/08/28 07:12:11;;;;;;;14.07;6.40;;;17.80;99.90;;;;;;5076949;28;20688;-79
2021/08/28 07:14:41;;;;;;;14.90;6.13;;;18.00;99.90;;;;;;5080878;28;20253;-79
2021/08/28 07:17:09;;;;;;;18.40;6.23;;;18.20;99.90;;;;;;5081657;28;20646;-77
2021/08/28 07:19:36;;;;;;;13.83;5.83;;;18.40;99.90;;;;;;5081521;28;20745;-81
2021/08/28 07:22:03;;;;;;;15.50;6.30;;;18.60;99.90;;;;;;5081009;28;20254;-82
2021/08/28 07:24:30;;;;;;;19.67;6.60;;;18.90;99.90;;;;;;5079027;28;20227;-81
2021/08/28 07:26:59;;;;;;;12.87;6.17;;;19.20;99.90;;;;;;5089359;28;20245;-78
2021/08/28 07:29:25;;;;;;;12.27;5.70;;;19.40;99.90;;;;;;5075785;28;20199;-80
2021/08/28 07:31:52;;;;;;;18.10;5.83;;;19.70;99.90;;;;;;5079205;28;20218;-79
2021/08/28 07:34:19;;;;;;;14.50;5.33;;;19.70;99.90;;;;;;5087647;28;20207;-78
2021/08/28 07:36:46;;;;;;;16.00;6.13;;;19.80;99.90;;;;;;5088164;28;20195;-81
2021/08/28 07:39:13;;;;;;;15.37;5.37;;;19.90;99.90;;;;;;5061301;28;20284;-78
2021/08/28 07:41:40;;;;;;;14.47;6.30;;;19.80;99.90;;;;;;5082289;28;20310;-76
2021/08/28 07:44:09;;;;;;;9.87;5.97;;;19.70;99.90;;;;;;5093858;28;20615;-82
2021/08/28 07:46:35;;;;;;;9.53;5.60;;;19.80;99.90;;;;;;5094812;28;20384;-78
2021/08/28 07:49:02;;;;;;;21.37;6.77;;;20.00;99.90;;;;;;5088406;28;20215;-78
2021/08/28 07:51:29;;;;;;;11.27;5.47;;;20.30;99.90;;;;;;5095151;28;20740;-83
2021/08/28 07:53:56;;;;;;;14.70;6.20;;;19.80;99.90;;;;;;5094830;28;20260;-77
2021/08/28 07:56:23;;;;;;;11.57;5.83;;;19.50;99.90;;;;;;5095337;28;20657;-77
2021/08/28 07:58:50;;;;;;;16.73;5.37;;;19.30;99.90;;;;;;5092035;28;20279;-78
2021/08/28 08:01:18;;;;;;;10.67;5.07;;;19.10;99.90;;;;;;5081434;28;20250;-80
2021/08/28 08:03:45;;;;;;;9.33;4.77;;;19.10;99.90;;;;;;5069304;28;20227;-80
2021/08/28 08:06:12;;;;;;;12.50;4.77;;;19.00;99.90;;;;;;5084356;28;20671;-81
2021/08/28 08:08:39;;;;;;;7.33;4.00;;;19.00;99.90;;;;;;5075621;28;20227;-77
2021/08/28 08:11:06;;;;;;;11.57;3.90;;;19.00;99.90;;;;;;5081880;28;20206;-81
2021/08/28 08:13:33;;;;;;;9.23;3.87;;;18.90;99.90;;;;;;5083505;28;20325;-80
2021/08/28 08:16:00;;;;;;;11.87;3.30;;;18.90;99.90;;;;;;5074485;28;20286;-80
2021/08/28 08:18:28;;;;;;;9.00;3.60;;;19.00;99.90;;;;;;5076333;28;20331;-76
2021/08/28 08:20:55;;;;;;;9.27;3.77;;;19.60;99.90;;;;;;5074589;28;20310;-78
2021/08/28 08:23:22;;;;;;;5.70;3.33;;;20.20;99.90;;;;;;5078935;28;20235;-78
2021/08/28 08:25:49;;;;;;;8.10;3.73;;;19.90;99.90;;;;;;5077119;28;20242;-78
2021/08/28 08:28:16;;;;;;;8.40;3.53;;;19.80;99.90;;;;;;5079377;28;20294;-78
2021/08/28 08:30:43;;;;;;;12.87;3.63;;;20.10;99.90;;;;;;5070489;28;20210;-80
2021/08/28 08:33:10;;;;;;;8.83;4.10;;;20.30;99.90;;;;;;5067242;28;20222;-84
2021/08/28 08:35:39;;;;;;;9.77;3.00;;;20.20;99.90;;;;;;5075789;28;20719;-79
2021/08/28 08:38:06;;;;;;;10.27;3.83;;;19.50;99.90;;;;;;5068066;28;20298;-81
2021/08/28 08:40:33;;;;;;;10.90;3.40;;;19.20;99.90;;;;;;5068715;28;20204;-81
2021/08/28 08:43:03;;;;;;;8.90;3.30;;;19.10;99.90;;;;;;5062392;28;20269;-79
2021/08/28 08:45:31;;;;;;;7.60;3.40;;;19.00;99.90;;;;;;5063072;28;20212;-77
2021/08/28 08:47:58;;;;;;;9.93;3.17;;;18.80;99.90;;;;;;5066410;28;20624;-77
2021/08/28 08:50:26;;;;;;;5.93;3.40;;;18.70;99.90;;;;;;5065869;28;20196;-81
2021/08/28 08:52:56;;;;;;;9.13;3.37;;;19.20;99.90;;;;;;5060539;28;20650;-79
2021/08/28 08:55:23;;;;;;;7.97;3.10;;;19.50;99.90;;;;;;5065465;28;20295;-81
2021/08/28 08:57:50;;;;;;;11.00;3.37;;;21.50;99.90;;;;;;5071226;28;20294;-76
2021/08/28 09:00:18;;;;;;;6.90;2.90;;;22.60;99.90;;;;;;5068911;28;20608;-78
2021/08/28 09:02:45;;;;;;;5.65;3.05;;;23.20;99.90;;;;;;5067729;28;20310;-79
2021/08/28 09:05:12;;;;;;;6.82;2.78;;;23.00;99.90;;;;;;5061591;28;20240;-76
2021/08/28 09:07:39;;;;;;;7.23;2.90;;;22.40;99.90;;;;;;5070196;28;20203;-76
2021/08/28 09:10:08;;;;;;;9.20;3.25;;;22.10;99.90;;;;;;5070798;28;20219;-76
2021/08/28 09:12:37;;;;;;;4.45;2.80;;;21.90;99.90;;;;;;5069451;28;20218;-80
2021/08/28 09:15:05;;;;;;;8.68;2.95;;;22.80;99.90;;;;;;5077128;28;20218;-75
2021/08/28 09:17:33;;;;;;;4.75;3.00;;;23.30;99.90;;;;;;5080574;28;20282;-80
2021/08/28 09:20:01;;;;;;;6.70;2.83;;;24.20;99.90;;;;;;5080588;28;20201;-77
2021/08/28 09:22:31;;;;;;;7.35;3.30;;;24.20;99.90;;;;;;5073958;28;21898;-78
2021/08/28 09:24:59;;;;;;;10.73;3.20;;;24.40;99.90;;;;;;5071725;28;20207;-77
2021/08/28 09:27:35;;;;;;;4.80;3.00;;;24.30;99.90;;;;;;5070587;28;20196;-75
2021/08/28 09:30:04;;;;;;;5.88;2.83;;;24.40;99.90;;;;;;5070757;28;20187;-75
2021/08/28 09:32:35;;;;;;;5.53;2.67;;;24.10;99.90;;;;;;5072951;28;20231;-77
2021/08/28 09:35:09;;;;;;;5.07;2.67;;;23.00;99.90;;;;;;5070549;28;20200;-75
2021/08/28 09:37:40;;;;;;;5.70;2.72;;;21.20;99.90;;;;;;5072861;28;20204;-75
2021/08/28 09:40:08;;;;;;;5.33;3.10;;;19.90;99.90;;;;;;5087575;28;20653;-73
2021/08/28 09:42:40;;;;;;;8.93;3.40;;;19.30;99.90;;;;;;5090330;28;20318;-75
2021/08/28 09:45:13;;;;;;;6.83;3.20;;;19.00;99.90;;;;;;5091986;28;20493;-75
2021/08/28 09:47:43;;;;;;;9.30;3.10;;;19.00;99.90;;;;;;5093297;28;20581;-73
2021/08/28 09:50:11;;;;;;;6.40;2.90;;;18.90;99.90;;;;;;5092620;28;20617;-74
2021/08/28 09:52:44;;;;;;;6.80;3.20;;;19.20;99.90;;;;;;5093303;28;20205;-73
2021/08/28 09:55:12;;;;;;;3.87;2.80;;;19.60;99.90;;;;;;5093129;28;20195;-73
2021/08/28 09:57:41;;;;;;;5.60;3.30;;;20.10;99.90;;;;;;5092992;28;20317;-74
2021/08/28 10:00:09;;;;;;;5.80;2.73;;;20.60;99.90;;;;;;5093207;28;20280;-73
2021/08/28 10:02:36;;;;;;;5.63;3.07;;;21.10;99.90;;;;;;5092778;28;20317;-73
2021/08/28 10:05:03;;;;;;;9.47;3.70;;;21.50;99.90;;;;;;5092941;28;20234;-73
2021/08/28 10:07:32;;;;;;;7.87;3.37;;;21.50;99.90;;;;;;5093280;28;20238;-75
2021/08/28 10:10:00;;;;;;;8.88;3.45;;;21.80;99.90;;;;;;5093060;28;20251;-76
2021/08/28 10:12:30;;;;;;;6.95;3.47;;;21.20;99.90;;;;;;5092891;28;20285;-73
2021/08/28 10:14:58;;;;;;;10.20;3.70;;;21.00;99.90;;;;;;5092914;28;20638;-75
2021/08/28 10:17:28;;;;;;;6.03;3.60;;;21.30;99.90;;;;;;5092766;28;20665;-77
2021/08/28 10:19:56;;;;;;;9.83;3.50;;;21.10;99.90;;;;;;5093011;28;20195;-76
2021/08/28 10:22:33;;;;;;;5.17;3.27;;;20.90;99.90;;;;;;5092853;28;20277;-74
2021/08/28 10:25:05;;;;;;;5.63;3.60;;;20.70;99.90;;;;;;5092903;28;20620;-73
2021/08/28 10:27:32;;;;;;;8.70;3.53;;;20.60;99.90;;;;;;5092996;28;20628;-72
2021/08/28 10:30:01;;;;;;;7.73;3.50;;;21.00;99.90;;;;;;5093034;28;20199;-74
2021/08/28 10:32:28;;;;;;;7.72;3.78;;;22.60;99.90;;;;;;5092848;28;20324;-75
2021/08/28 10:34:55;;;;;;;11.20;3.53;;;23.60;99.90;;;;;;5092857;28;20282;-76
2021/08/28 10:37:21;;;;;;;6.20;3.20;;;24.80;99.90;;;;;;5092601;28;20715;-76
2021/08/28 10:39:51;;;;;;;8.23;3.47;;;23.90;99.90;;;;;;5092615;28;20724;-76
2021/08/28 10:42:19;;;;;;;9.10;3.90;;;23.00;99.90;;;;;;5092442;28;20314;-75
2021/08/28 10:44:50;;;;;;;9.13;3.80;;;22.00;99.90;;;;;;5092837;28;20286;-75
2021/08/28 10:47:22;;;;;;;8.70;3.83;;;21.70;99.90;;;;;;5092843;28;20226;-76
2021/08/28 10:49:51;;;;;;;8.00;3.60;;;21.60;99.90;;;;;;5093798;28;20205;-75
2021/08/28 10:52:19;;;;;;;6.07;3.60;;;21.30;99.90;;;;;;5096463;28;20295;-74
2021/08/28 10:54:54;;;;;;;5.28;3.72;;;21.50;99.90;;;;;;5096453;28;20244;-73
2021/08/28 10:57:26;;;;;;;6.77;3.47;;;21.50;99.90;;;;;;5096431;28;20198;-73
2021/08/28 11:00:01;;;;;;;5.80;3.40;;;21.80;99.90;;;;;;5097007;28;20264;-76
2021/08/28 11:02:51;;;;;;;5.45;3.25;;;21.60;99.90;;;;;;5096390;28;20314;-74
2021/08/28 11:05:20;;;;;;;7.10;3.40;;;22.10;99.90;;;;;;5096130;28;20194;-74
2021/08/28 11:07:47;;;;;;;7.70;3.60;;;21.90;99.90;;;;;;5096241;28;20205;-73
2021/08/28 11:10:16;;;;;;;8.00;3.38;;;22.40;99.90;;;;;;5096296;28;20198;-75
2021/08/28 11:12:49;;;;;;;7.90;3.50;;;23.10;99.90;;;;;;5096043;28;20293;-74
2021/08/28 11:15:52;;;;;;;6.93;3.30;;;23.60;99.90;;;;;;5095917;28;20237;-74
2021/08/28 11:18:45;;;;;;;8.40;3.58;;;24.70;99.90;;;;;;5099208;28;20702;-74
2021/08/28 11:21:13;;;;;;;5.72;3.40;;;25.80;99.90;;;;;;5105964;28;20285;-74
2021/08/28 11:23:45;;;;;;;10.93;3.30;;;27.20;99.90;;;;;;5105203;28;20305;-74
2021/08/28 11:26:12;;;;;;;5.07;3.17;;;25.40;99.90;;;;;;5103922;28;20209;-73
2021/08/28 11:28:43;;;;;;;7.60;3.38;;;24.70;99.90;;;;;;5105153;28;20562;-75
2021/08/28 11:31:11;;;;;;;5.70;2.97;;;23.30;99.90;;;;;;5103825;28;20195;-74
2021/08/28 11:33:38;;;;;;;5.00;3.10;;;23.90;99.90;;;;;;5104040;28;20199;-76
2021/08/28 11:36:18;;;;;;;8.13;3.33;;;23.70;99.90;;;;;;5102266;28;20251;-75
2021/08/28 11:38:50;;;;;;;7.38;3.30;;;23.10;99.90;;;;;;5096429;28;20290;-75
2021/08/28 11:41:22;;;;;;;6.03;3.13;;;22.60;99.90;;;;;;5095928;28;20264;-74
2021/08/28 11:43:51;;;;;;;4.68;3.50;;;21.90;99.90;;;;;;5095749;28;20210;-76
2021/08/28 11:46:19;;;;;;;6.80;3.90;;;22.00;99.90;;;;;;5095552;28;20696;-75
2021/08/28 11:48:47;;;;;;;7.13;3.90;;;21.80;99.90;;;;;;5095710;28;20692;-74
2021/08/28 11:51:18;;;;;;;5.53;4.20;;;22.00;99.90;;;;;;5095947;28;20748;-74
2021/08/28 11:53:46;;;;;;;8.32;4.47;;;22.20;99.90;;;;;;5095265;28;20199;-75
2021/08/28 11:56:15;;;;;;;7.85;4.43;;;22.70;99.90;;;;;;5095466;28;20199;-77
2021/08/28 11:58:58;;;;;;;8.45;4.63;;;23.30;99.90;;;;;;5095520;28;20207;-74
2021/08/28 12:01:31;;;;;;;8.93;4.50;;;24.40;99.90;;;;;;5094574;28;20241;-73
2021/08/28 12:04:00;;;;;;;6.60;4.20;;;25.10;99.90;;;;;;5095506;28;20552;-75
2021/08/28 12:06:29;;;;;;;8.18;4.10;;;26.00;99.90;;;;;;5095380;28;20195;-75
2021/08/28 12:08:57;;;;;;;6.88;3.97;;;27.00;99.90;;;;;;5095454;28;20286;-75
2021/08/28 12:11:24;;;;;;;8.00;3.60;;;28.00;99.90;;;;;;5094956;28;20234;-74
2021/08/28 12:13:52;;;;;;;6.43;3.60;;;28.20;99.90;;;;;;5095110;28;20231;-75
2021/08/28 12:16:21;;;;;;;7.97;4.05;;;26.40;99.90;;;;;;5094959;28;20298;-75
2021/08/28 12:19:04;;;;;;;5.43;3.20;;;24.70;99.90;;;;;;5095131;28;20238;-73
2021/08/28 12:21:34;;;;;;;5.70;3.70;;;23.60;99.90;;;;;;5094872;28;20234;-76
2021/08/28 12:24:19;;;;;;;7.47;4.05;;;22.80;99.90;;;;;;5095085;28;20294;-76
2021/08/28 12:26:52;;;;;;;7.43;3.95;;;22.50;99.90;;;;;;5094985;28;20278;-77
2021/08/28 12:29:26;;;;;;;11.18;3.85;;;21.60;99.90;;;;;;5094727;28;20191;-75
2021/08/28 12:32:01;;;;;;;6.57;3.50;;;21.10;99.90;;;;;;5094547;28;20630;-74
2021/08/28 12:34:30;;;;;;;8.32;3.65;;;21.00;99.90;;;;;;5094386;28;20240;-74
2021/08/28 12:36:59;;;;;;;5.60;3.40;;;21.40;99.90;;;;;;5094367;28;20191;-76
2021/08/28 12:39:28;;;;;;;5.30;3.10;;;22.30;99.90;;;;;;5094395;28;20199;-74
2021/08/28 12:41:56;;;;;;;6.00;3.95;;;22.60;99.90;;;;;;5094464;28;20237;-75
2021/08/28 12:44:24;;;;;;;6.82;3.60;;;23.00;99.90;;;;;;5094084;28;20795;-75
2021/08/28 12:46:53;;;;;;;5.65;3.55;;;22.80;99.90;;;;;;5094198;28;20691;-74